Adak, AK

9:31 AM HADT on October 01, 2014 (GMT -0900)
Adak | Change Station
CLOSE
Current Station
Airport
Location: Adak,
Elevation: 13 ft
Nearby Weather Stations

Elev 13 ft 51.88 °N, 176.65 °W | Updated 15 minutes ago

Overcast
Overcast
46 °F
Feels Like 42 °F
N
10
Wind Variable Wind from East

Today
High -- | Low -- °F
--% Chance of Precip.
Yesterday
High -- | Low -- °F
Precip. -- in
8:47 AM 8:23 PM
Waxing Crescent, 50% visible
Pressure 29.89 in
Visibility 7.0 miles
Clouds Mostly Cloudy 2100 ft
Overcast 3400 ft
Windchill 42 °F
Dew Point 43 °F
Humidity 87%
Rainfall 0.00 in
Snow Depth 3 in , 102 in , 0 in
UV 0 out of 12
Pollen Not available.
Air Quality Not available.
Flu Activity Not available.
METAR PADK 011816Z AUTO 10009KT 7SM BKN021 OVC034 08/06 A2989 RMK AO1

More Conditions Fewer Conditions

Pressure 29.89 in
Visibility 7.0 miles
Clouds Mostly Cloudy 2100 ft
Overcast 3400 ft
Windchill 42 °F
Dew Point 43 °F
Humidity 87%
Rainfall 0.00 in
Snow Depth 3 in , 102 in , 0 in
UV 0 out of 12
Pollen Not available.
Air Quality Not available.
Flu Activity Not available.
METAR PADK 011816Z AUTO 10009KT 7SM BKN021 OVC034 08/06 A2989 RMK AO1

More Conditions Fewer Conditions

10-Day Weather Forecast

Almanac

Astronomy

Oct. 01, 2014 Rise Set
Actual Time 8:47 AM HADT 8:23 PM HADT
Civil Twilight 8:14 AM HADT 8:56 PM HADT
Nautical Twilight 7:35 AM HADT 9:35 PM HADT
Astronomical Twilight 6:55 AM HADT 10:15 PM HADT
Moon 4:31 PM HADT 12:37 AM HADT
Length of Visible Light 12h 42m
Length of Day
11h 35m
Tomorrow will be 3m 57s shorter.
Waxing Crescent, 50% of the Moon is Illuminated
Today
Waxing Crescent
Oct 1
First Quarter
Oct 8
Full
Oct 15
Last Quarter
Oct 23
New

Today's Extremes

State Highs State Lows

Community

WunderPhotos

Upload Photos

1,758,010 photos uploaded!

WunderBlogs® & News

By Dr. Jeff Masters
Director of Meteorology, Weather Underground
By Kari Strenfel
Meteorologist, Weather Underground
By Christopher C. Burt
Weather Historian, Weather Underground
October 1, 2014
October 1, 2014
October 1, 2014

Nearby

Snow Depth

Station Depth Elevation
Indian Pass 1 in 2300 ft
Mt. Ryan 3 in 2800 ft
Little Chena Ridge 2 in 2000 ft
Coldfoot 3 in 1040 ft
Summit Creek 0 in 1400 ft

Earthquake Activity

City Distance Mag. Time & Date
No recent earthquake activity has been reported nearby.
Minimum magnitude displayed is 2.5.

Coastal Water Temperatures

Place Temperature
No Stations Reporting

Nearby Weather Stations